createdAt,value
2023-02-13T00:03:21.455Z,15.20
2023-02-13T00:08:23.145Z,15.30
2023-02-13T00:13:24.758Z,15.43
2023-02-13T00:18:27.777Z,15.02
2023-02-13T00:23:31.620Z,14.18
2023-02-13T00:28:33.528Z,15.15
2023-02-13T00:33:35.698Z,14.55
2023-02-13T00:38:38.813Z,15.05
2023-02-13T00:43:40.695Z,14.45
2023-02-13T00:48:42.380Z,14.48
2023-02-13T00:53:43.986Z,14.05
2023-02-13T00:58:46.055Z,14.40
2023-02-13T01:03:47.740Z,14.70
2023-02-13T01:08:49.427Z,14.60
2023-02-13T01:13:51.026Z,15.70
2023-02-13T01:18:52.619Z,15.25
2023-02-13T01:23:54.223Z,15.05
2023-02-13T01:28:57.788Z,15.98
2023-02-13T01:33:59.923Z,14.52
2023-02-13T01:39:01.651Z,15.80
2023-02-13T01:44:03.814Z,14.80
2023-02-13T01:49:23.674Z,15.15
2023-02-13T01:54:31.422Z,15.27
2023-02-13T01:59:55.192Z,13.38
2023-02-13T02:04:56.800Z,14.32
2023-02-13T02:10:07.637Z,14.93
2023-02-13T02:15:09.971Z,15.18
2023-02-13T02:20:20.463Z,15.45
2023-02-13T02:25:53.036Z,15.93
2023-02-13T02:31:06.593Z,15.40
2023-02-13T02:36:57.079Z,15.07
2023-02-13T02:42:11.776Z,14.98
2023-02-13T02:47:42.803Z,15.60
2023-02-13T02:53:02.438Z,14.13
2023-02-13T02:58:38.800Z,16.10
2023-02-13T03:03:59.535Z,17.02
2023-02-13T03:09:22.754Z,17.30
2023-02-13T03:14:27.394Z,17.23
2023-02-13T03:20:16.555Z,18.35
2023-02-13T03:25:30.375Z,18.10
2023-02-13T03:30:49.762Z,18.05
2023-02-13T03:36:28.828Z,18.48
2023-02-13T03:41:52.777Z,22.15
2023-02-13T03:46:58.486Z,20.63
2023-02-13T03:52:16.206Z,22.02
2023-02-13T03:57:40.274Z,21.55
2023-02-13T04:02:54.935Z,20.23
2023-02-13T04:07:56.873Z,19.25
2023-02-13T04:13:24.009Z,19.50
2023-02-13T04:18:30.783Z,19.92
2023-02-13T04:23:32.840Z,21.88
2023-02-13T04:28:34.506Z,22.20
2023-02-13T04:33:36.112Z,22.13
2023-02-13T04:38:37.697Z,17.52
2023-02-13T04:43:39.366Z,18.10
2023-02-13T04:48:40.984Z,20.42
2023-02-13T04:53:42.588Z,18.48
2023-02-13T04:58:44.175Z,24.83
2023-02-13T05:03:46.002Z,21.98
2023-02-13T05:08:47.689Z,19.00
2023-02-13T05:13:49.281Z,17.35
2023-02-13T05:18:54.900Z,23.15
2023-02-13T05:23:56.562Z,20.67
2023-02-13T05:29:16.660Z,23.50
2023-02-13T05:34:18.754Z,38.13
2023-02-13T05:39:20.764Z,23.63
2023-02-13T05:44:22.419Z,30.20
2023-02-13T05:49:24.071Z,38.50
2023-02-13T05:54:25.753Z,34.88
2023-02-13T05:59:27.366Z,35.00
2023-02-13T06:04:28.980Z,26.13
2023-02-13T06:09:30.624Z,28.48
2023-02-13T06:14:32.277Z,26.13
2023-02-13T06:19:33.936Z,29.08
2023-02-13T06:24:35.558Z,27.60
2023-02-13T06:29:37.181Z,31.55
2023-02-13T06:34:38.764Z,33.45
2023-02-13T06:39:40.369Z,34.03
2023-02-13T06:44:41.987Z,36.38
2023-02-13T06:49:43.561Z,38.28
2023-02-13T06:54:47.943Z,31.55
2023-02-13T06:59:49.823Z,38.55
2023-02-13T07:04:51.470Z,42.35
2023-02-13T07:09:53.030Z,42.03
2023-02-13T07:14:54.686Z,37.58
2023-02-13T07:19:56.362Z,36.20
2023-02-13T07:24:59.088Z,29.27
2023-02-13T07:30:00.785Z,47.05
2023-02-13T07:35:02.834Z,40.53
2023-02-13T07:40:06.488Z,33.85
2023-02-13T07:45:08.904Z,40.88
2023-02-13T07:50:11.829Z,40.45
2023-02-13T07:55:13.458Z,26.58
2023-02-13T08:00:18.387Z,31.20
2023-02-13T08:05:24.738Z,24.42
2023-02-13T08:10:46.750Z,24.90
2023-02-13T08:15:48.678Z,23.55
2023-02-13T08:20:50.302Z,21.85
2023-02-13T08:25:52.449Z,28.90
2023-02-13T08:30:55.452Z,19.73
2023-02-13T08:35:57.372Z,22.85
2023-02-13T08:40:59.567Z,24.77
2023-02-13T08:46:01.668Z,24.23
2023-02-13T08:51:11.514Z,31.90
2023-02-13T08:56:13.235Z,40.83
2023-02-13T09:01:15.078Z,21.05
2023-02-13T09:06:16.920Z,23.15
2023-02-13T09:11:19.817Z,28.15
2023-02-13T09:16:22.518Z,22.08
2023-02-13T09:21:24.222Z,36.08
2023-02-13T09:26:25.872Z,23.50
2023-02-13T09:31:29.542Z,24.73
2023-02-13T09:36:31.485Z,25.05
2023-02-13T09:41:37.672Z,22.95
2023-02-13T09:46:41.053Z,26.42
2023-02-13T09:51:50.442Z,20.30
2023-02-13T09:57:02.020Z,19.65
2023-02-13T10:02:41.622Z,18.05
2023-02-13T10:07:51.261Z,17.92
2023-02-13T10:12:58.693Z,18.23
2023-02-13T10:18:05.403Z,16.20
2023-02-13T10:23:28.815Z,16.42
2023-02-13T10:28:33.608Z,16.42
2023-02-13T10:33:39.612Z,16.45
2023-02-13T10:39:03.112Z,15.35
2023-02-13T10:44:41.551Z,15.07
2023-02-13T10:49:52.806Z,14.23
2023-02-13T10:55:13.060Z,13.88
2023-02-13T11:00:38.941Z,13.18
2023-02-13T11:05:51.405Z,12.43
2023-02-13T11:10:53.614Z,14.07
2023-02-13T11:16:02.746Z,13.63
2023-02-13T11:21:17.875Z,12.27
2023-02-13T11:26:28.490Z,12.40
2023-02-13T11:31:32.657Z,11.07
2023-02-13T11:36:34.475Z,11.38
2023-02-13T11:41:42.306Z,10.43
2023-02-13T11:46:47.948Z,9.40
2023-02-13T11:51:54.544Z,9.40
2023-02-13T11:57:04.833Z,8.23
2023-02-13T12:02:21.276Z,9.38
2023-02-13T12:07:25.268Z,8.20
2023-02-13T12:12:36.746Z,8.85
2023-02-13T12:17:40.800Z,9.20
2023-02-13T12:23:09.770Z,9.77
2023-02-13T12:28:13.996Z,9.30
2023-02-13T12:33:21.763Z,10.88
2023-02-13T12:38:35.006Z,9.63
2023-02-13T12:44:20.629Z,9.27
2023-02-13T12:50:01.321Z,8.68
2023-02-13T12:55:21.456Z,9.23
2023-02-13T13:00:41.367Z,8.85
2023-02-13T13:06:14.475Z,8.48
2023-02-13T13:11:38.241Z,8.73
2023-02-13T13:16:57.447Z,8.77
2023-02-13T13:22:15.079Z,8.32
2023-02-13T13:27:26.272Z,7.93
2023-02-13T13:32:30.067Z,7.97
2023-02-13T13:37:42.829Z,7.32
2023-02-13T13:43:28.460Z,7.07
2023-02-13T13:48:51.931Z,7.65
2023-02-13T13:54:05.479Z,6.78
2023-02-13T13:59:17.285Z,6.93
2023-02-13T14:04:36.694Z,6.78
2023-02-13T14:09:43.233Z,6.20
2023-02-13T14:14:45.805Z,6.40
2023-02-13T14:19:52.891Z,7.35
2023-02-13T14:25:05.357Z,6.07
2023-02-13T14:30:27.479Z,5.88
2023-02-13T14:35:38.021Z,5.18
2023-02-13T14:40:49.904Z,5.53
2023-02-13T14:46:03.959Z,5.10
2023-02-13T14:51:06.401Z,4.47
2023-02-13T14:56:14.561Z,4.75
2023-02-13T15:01:32.425Z,4.13
2023-02-13T15:06:39.583Z,4.22
2023-02-13T15:11:43.454Z,4.35
2023-02-13T15:16:52.512Z,4.40
2023-02-13T15:21:57.362Z,3.65
2023-02-13T15:27:07.206Z,3.50
2023-02-13T15:32:19.827Z,3.17
2023-02-13T15:37:23.823Z,2.60
2023-02-13T15:42:25.442Z,2.60
2023-02-13T15:47:31.663Z,2.42
2023-02-13T15:52:36.878Z,2.20
2023-02-13T15:57:39.442Z,4.60
2023-02-13T16:02:46.226Z,3.42
2023-02-13T16:07:48.825Z,3.10
2023-02-13T16:12:50.475Z,2.40
2023-02-13T16:17:52.385Z,3.30
2023-02-13T16:23:03.262Z,3.42
2023-02-13T16:28:22.344Z,4.13
2023-02-13T16:33:44.606Z,6.70
2023-02-13T16:38:48.551Z,7.88
2023-02-13T16:43:53.854Z,7.75
2023-02-13T16:48:59.151Z,5.97
2023-02-13T16:54:03.893Z,6.55
2023-02-13T16:59:17.351Z,4.50
2023-02-13T17:04:24.119Z,4.45
2023-02-13T17:09:25.869Z,6.47
2023-02-13T17:14:27.531Z,8.02
2023-02-13T17:19:29.863Z,8.75
2023-02-13T17:24:31.728Z,6.00
2023-02-13T17:29:33.325Z,5.63
2023-02-13T17:34:34.895Z,5.38
2023-02-13T17:39:36.520Z,4.97
2023-02-13T17:44:38.134Z,7.25
2023-02-13T17:49:39.796Z,8.95
2023-02-13T17:54:41.595Z,7.50
2023-02-13T17:59:44.005Z,7.53
2023-02-13T18:04:46.616Z,7.72
2023-02-13T18:09:48.210Z,6.68
2023-02-13T18:14:51.021Z,5.40
2023-02-13T18:19:52.651Z,7.68
2023-02-13T18:24:54.323Z,6.35
2023-02-13T18:29:56.451Z,20.73
2023-02-13T18:34:58.105Z,27.48
2023-02-13T18:39:59.824Z,20.90
2023-02-13T18:45:01.761Z,41.05
2023-02-13T18:50:04.307Z,34.72
2023-02-13T18:55:09.448Z,18.23
2023-02-13T19:00:12.746Z,13.40
2023-02-13T19:05:14.520Z,9.48
2023-02-13T19:10:16.193Z,11.13
2023-02-13T19:15:17.916Z,9.73
2023-02-13T19:20:19.947Z,7.03
2023-02-13T19:25:22.419Z,5.53
2023-02-13T19:30:24.166Z,10.80
2023-02-13T19:35:25.949Z,9.25
2023-02-13T19:40:28.032Z,9.32
2023-02-13T19:45:29.661Z,6.88
2023-02-13T19:50:31.231Z,6.95
2023-02-13T19:55:32.844Z,9.18
2023-02-13T20:00:34.555Z,9.90
2023-02-13T20:05:40.079Z,6.93
2023-02-13T20:10:45.821Z,8.32
2023-02-13T20:15:47.865Z,7.13
2023-02-13T20:20:49.577Z,6.90
2023-02-13T20:25:51.538Z,6.75
2023-02-13T20:30:53.660Z,5.35
2023-02-13T20:35:56.143Z,5.93
2023-02-13T20:40:58.696Z,6.07
2023-02-13T20:46:01.562Z,5.90
2023-02-13T20:51:05.995Z,5.72
2023-02-13T20:56:19.115Z,6.95
2023-02-13T21:01:30.378Z,7.07
2023-02-13T21:06:34.929Z,7.45
2023-02-13T21:11:38.467Z,7.85
2023-02-13T21:16:41.716Z,7.50
2023-02-13T21:21:44.313Z,6.72
2023-02-13T21:26:47.261Z,6.88
2023-02-13T21:31:49.018Z,6.78
2023-02-13T21:36:50.688Z,6.57
2023-02-13T21:41:52.287Z,6.03
2023-02-13T21:46:54.197Z,6.60
2023-02-13T21:51:55.877Z,8.05
2023-02-13T21:56:57.525Z,7.65
2023-02-13T22:02:00.199Z,9.93
2023-02-13T22:07:02.156Z,10.68
2023-02-13T22:12:04.408Z,9.88
2023-02-13T22:17:06.134Z,7.55
2023-02-13T22:22:08.978Z,8.10
2023-02-13T22:27:10.630Z,14.45
2023-02-13T22:32:12.344Z,11.65
2023-02-13T22:37:14.023Z,7.70
2023-02-13T22:42:16.081Z,9.07
2023-02-13T22:47:17.636Z,9.02
2023-02-13T22:52:19.253Z,8.60
2023-02-13T22:57:20.823Z,8.75
2023-02-13T23:02:22.447Z,10.05
2023-02-13T23:07:24.069Z,7.60
2023-02-13T23:12:39.163Z,6.90
2023-02-13T23:18:00.442Z,12.63
2023-02-13T23:23:04.655Z,10.40
2023-02-13T23:28:06.983Z,8.43
2023-02-13T23:33:08.608Z,11.50
2023-02-13T23:38:10.271Z,10.07
2023-02-13T23:43:12.197Z,9.07
2023-02-13T23:48:13.874Z,9.13
2023-02-13T23:53:15.490Z,10.00
2023-02-13T23:58:17.131Z,10.63
